Terminal Aerodrome Forecast
Issued by NWS

Home | Current Version | Previous Version | Text Only | Print | Product List | Glossary On
Versions: 1 2 3 4 5 6 7 8 9 10 11 12 13
662
FTUS46 KPDT 112339
TAFBDN
TAF
KBDN 112339Z 1200/1224 35006KT P6SM SCT050 BKN090
     FM120600 VRB04KT P6SM SCT060 OVC080
     FM120900 20004KT P6SM BKN040 OVC060
     FM122100 28010KT P6SM -SHRA BKN035 OVC050=

USA.gov is the U.S. government's official web portal to all federal, state and local government web resources and services.